Time;durP1;ratioP1;P1;durP2;ratioP2;P2;SDS_P1;SDS_P2;PMS_P1;PMS_P2;Temp;Humidity;BMP_temperature;BMP_pressure;BME280_temperature;BME280_humidity;BME280_pressure;Samples;Min_cycle;Max_cycle;Signal;HPM_P1;HPM_P2
2022/09/17 00:09:08;;;;;;;8.50;5.20;;;;;;;8.25;98.93;97653.25;219904;1277;22697;-78
2022/09/17 00:15:58;;;;;;;;;;;;;;;;;;;;;
2022/09/17 00:22:58;;;;;;;7.30;5.40;;;;;;;8.18;99.45;97665.56;219291;1278;22529;-78
2022/09/17 00:29:05;;;;;;;10.20;5.40;;;;;;;8.15;99.53;97668.67;219622;1278;22626;-78
2022/09/17 00:42:09;;;;;;;7.50;4.90;;;;;;;8.04;99.34;97669.09;219569;1281;22541;-79
2022/09/17 00:48:22;;;;;;;;;;;;;;;;;;;;;
2022/09/17 00:54:17;;;;;;;10.20;5.50;;;;;;;7.93;99.44;97659.04;218587;1284;24648;-79
2022/09/17 01:00:11;;;;;;;8.70;5.80;;;;;;;7.91;99.73;97651.98;219100;1281;25500;-79
2022/09/17 01:06:38;;;;;;;;;;;;;;;;;;;;;
2022/09/17 01:12:48;;;;;;;8.00;4.60;;;;;;;7.85;99.69;97652.95;220141;1277;22548;-78
2022/09/17 01:19:02;;;;;;;6.70;5.10;;;;;;;7.79;99.39;97656.27;219334;1284;22570;-79
2022/09/17 01:31:47;;;;;;;;;;;;;;;;;;;;;
2022/09/17 01:38:17;;;;;;;6.50;4.40;;;;;;;7.53;99.88;97635.83;218431;1282;24277;-78
2022/09/17 01:45:02;;;;;;;8.90;5.80;;;;;;;7.50;99.99;97627.83;219646;1281;24386;-77
2022/09/17 02:11:19;;;;;;;13.50;8.30;;;;;;;7.19;100.00;97629.67;219686;1281;24431;-78
2022/09/17 02:17:26;;;;;;;26.90;19.30;;;;;;;7.15;99.99;97635.18;218752;1284;24137;-78
2022/09/17 02:23:10;;;;;;;;;;;;;;;;;;;;;
2022/09/17 02:42:27;;;;;;;;;;;;;;;;;;;;;
2022/09/17 02:49:07;;;;;;;;;;;;;;;;;;;;;
2022/09/17 02:56:02;;;;;;;;;;;;;;;;;;;;;
2022/09/17 03:02:58;;;;;;;;;;;;;;;;;;;;;
2022/09/17 03:15:43;;;;;;;25.60;18.60;;;;;;;7.12;100.00;97628.89;218840;1284;22598;-78
2022/09/17 03:22:35;;;;;;;;;;;;;;;;;;;;;
2022/09/17 03:35:45;;;;;;;46.50;30.90;;;;;;;7.13;100.00;97618.21;219204;1282;22601;-79
2022/09/17 03:42:26;;;;;;;;;;;;;;;;;;;;;
2022/09/17 03:49:24;;;;;;;;;;;;;;;;;;;;;
2022/09/17 03:55:23;;;;;;;9.60;5.10;;;;;;;6.86;100.00;97605.42;220024;1278;22548;-78
2022/09/17 04:09:18;;;;;;;11.00;6.40;;;;;;;6.82;100.00;97588.57;219270;1277;22740;-79
2022/09/17 04:23:42;;;;;;;10.30;5.80;;;;;;;6.66;100.00;97600.17;219623;1276;22712;-79
2022/09/17 04:28:55;;;;;;;7.20;5.10;;;;;;;6.60;100.00;97593.70;220044;1277;24475;-78
2022/09/17 04:35:46;;;;;;;5.90;4.60;;;;;;;6.62;100.00;97585.27;219901;1279;24246;-78
2022/09/17 04:42:09;;;;;;;7.60;5.70;;;;;;;6.73;100.00;97587.65;220242;1276;24323;-78
2022/09/17 04:47:50;;;;;;;9.90;6.50;;;;;;;6.79;100.00;97570.98;220195;1276;25313;-78
2022/09/17 04:53:49;;;;;;;9.00;5.70;;;;;;;6.81;100.00;97580.06;220049;1277;25399;-78
2022/09/17 04:59:42;;;;;;;9.30;6.70;;;;;;;6.86;100.00;97583.82;220006;1277;23796;-79
2022/09/17 05:05:51;;;;;;;;;;;;;;;;;;;;;
2022/09/17 05:11:38;;;;;;;11.40;7.90;;;;;;;7.06;100.00;97599.39;220070;1277;22662;-77
2022/09/17 05:17:57;;;;;;;;;;;;;;;;;;;;;
2022/09/17 05:24:32;;;;;;;;;;;;;;;;;;;;;
2022/09/17 05:30:23;;;;;;;8.10;5.60;;;;;;;7.64;100.00;97604.27;219588;1281;22844;-78
2022/09/17 05:36:44;;;;;;;8.90;6.40;;;;;;;7.77;100.00;97602.31;218741;1284;24357;-77
2022/09/17 05:42:31;;;;;;;8.90;6.00;;;;;;;7.93;100.00;97599.11;218741;1284;22570;-78
2022/09/17 05:48:17;;;;;;;8.40;6.20;;;;;;;8.09;100.00;97605.79;219093;1282;22586;-79
2022/09/17 05:53:58;;;;;;;7.10;5.20;;;;;;;8.31;100.00;97613.73;219166;1282;22724;-78
2022/09/17 06:00:07;;;;;;;;;;;;;;;;;;;;;
2022/09/17 06:06:41;;;;;;;;;;;;;;;;;;;;;
2022/09/17 06:12:07;;;;;;;;;;;;;;;;;;;;;
2022/09/17 06:17:52;;;;;;;7.10;5.10;;;;;;;9.24;100.00;97588.60;219146;1284;24444;-79
2022/09/17 06:23:36;;;;;;;6.20;4.70;;;;;;;9.41;100.00;97587.75;219276;1284;22597;-79
2022/09/17 06:29:07;;;;;;;5.00;3.90;;;;;;;9.62;100.00;97607.19;219147;1282;25345;-78
2022/09/17 06:40:53;;;;;;;4.30;3.50;;;;;;;10.06;100.00;97630.83;219388;1284;22544;-78
2022/09/17 06:47:08;;;;;;;4.10;3.60;;;;;;;10.30;99.84;97641.35;219251;1282;22595;-79
2022/09/17 06:52:49;;;;;;;;;;;;;;;;;;;;;
2022/09/17 06:58:46;;;;;;;2.90;2.60;;;;;;;10.79;98.55;97642.65;219611;1282;22564;-78
2022/09/17 07:04:36;;;;;;;6.40;3.60;;;;;;;10.99;97.52;97646.15;219388;1284;25352;-77
2022/09/17 07:09:42;;;;;;;4.70;3.30;;;;;;;11.28;97.12;97634.88;219755;1282;22689;-77
2022/09/17 07:15:37;;;;;;;3.00;2.70;;;;;;;11.52;96.71;97632.23;219495;1283;24280;-77
2022/09/17 07:21:09;;;;;;;3.50;2.50;;;;;;;11.80;96.22;97648.80;219359;1283;24240;-78
2022/09/17 07:27:13;;;;;;;2.90;2.60;;;;;;;12.13;94.97;97657.61;219176;1284;22808;-78
2022/09/17 07:33:08;;;;;;;2.20;2.00;;;;;;;12.56;95.02;97658.29;219440;1284;23231;-79
2022/09/17 07:39:07;;;;;;;2.60;2.30;;;;;;;12.77;92.37;97661.92;219269;1281;25387;-78
2022/09/17 07:44:52;;;;;;;3.20;2.30;;;;;;;13.03;91.99;97663.66;219341;1282;22609;-77
2022/09/17 07:50:50;;;;;;;;;;;;;;;;;;;;;
2022/09/17 07:57:23;;;;;;;3.10;2.00;;;;;;;13.12;89.24;97660.40;219300;1284;23487;-77
2022/09/17 08:03:02;;;;;;;2.80;1.60;;;;;;;13.38;89.71;97653.80;219103;1283;23335;-77
2022/09/17 08:09:01;;;;;;;1.50;1.40;;;;;;;13.82;86.89;97640.98;219264;1282;25378;-78
2022/09/17 08:14:43;;;;;;;2.40;1.90;;;;;;;14.03;85.46;97640.26;219262;1284;25423;-78
2022/09/17 08:20:53;;;;;;;2.30;1.60;;;;;;;14.32;84.29;97649.17;219424;1282;24316;-77
2022/09/17 08:27:11;;;;;;;2.10;1.00;;;;;;;14.37;83.76;97649.55;220408;1276;22692;-79
2022/09/17 08:32:45;;;;;;;2.70;1.50;;;;;;;14.49;83.22;97655.67;220231;1276;24285;-78
2022/09/17 08:37:56;;;;;;;2.70;1.20;;;;;;;14.61;82.91;97658.16;220042;1278;22724;-79
2022/09/17 08:43:04;;;;;;;3.80;1.90;;;;;;;14.67;81.25;97656.80;220619;1276;24268;-78
2022/09/17 08:48:12;;;;;;;1.20;1.10;;;;;;;14.82;80.83;97640.73;220262;1277;25336;-79
2022/09/17 08:53:22;;;;;;;;;;;;;;;14.90;79.59;97620.55;220150;1276;23266;-78
2022/09/17 08:58:58;;;;;;;2.00;1.30;;;;;;;14.90;79.98;97628.02;220330;1276;24447;-77
2022/09/17 09:04:46;;;;;;;1.30;1.20;;;;;;;15.05;80.00;97648.60;220324;1277;25372;-78
2022/09/17 09:10:12;;;;;;;3.50;1.10;;;;;;;15.25;78.44;97646.40;220462;1276;23800;-78
2022/09/17 09:16:06;;;;;;;2.20;1.50;;;;;;;15.46;79.13;97650.55;219752;1281;23833;-78
2022/09/17 09:22:03;;;;;;;1.90;1.60;;;;;;;15.59;77.49;97661.60;219771;1279;22745;-78
2022/09/17 09:27:25;;;;;;;1.00;1.00;;;;;;;15.43;77.50;97669.07;219414;1279;25409;-77
2022/09/17 09:32:48;;;;;;;3.60;1.50;;;;;;;15.30;77.61;97666.73;219429;1281;22586;-79
2022/09/17 09:39:24;;;;;;;;;;;;;;;;;;;;;
2022/09/17 09:44:48;;;;;;;2.20;1.40;;;;;;;15.18;77.36;97677.75;219807;1277;22744;-78
2022/09/17 09:50:12;;;;;;;1.40;1.30;;;;;;;15.23;77.17;97675.11;220265;1276;22540;-78
2022/09/17 09:56:02;;;;;;;4.90;1.30;;;;;;;15.22;76.03;97679.95;220418;1276;22725;-78
2022/09/17 10:01:29;;;;;;;1.60;1.50;;;;;;;15.11;75.35;97673.34;220471;1276;25402;-78
2022/09/17 10:06:42;;;;;;;1.80;1.50;;;;;;;15.08;75.95;97679.48;220353;1276;22605;-80
2022/09/17 10:12:20;;;;;;;1.60;1.50;;;;;;;15.21;76.90;97678.99;220249;1277;22530;-79
2022/09/17 10:17:34;;;;;;;3.80;1.60;;;;;;;15.29;75.93;97688.13;220262;1277;24290;-77
2022/09/17 10:22:47;;;;;;;1.90;1.60;;;;;;;15.17;75.86;97694.08;220605;1276;22568;-78
2022/09/17 10:28:01;;;;;;;3.30;1.40;;;;;;;15.09;76.62;97697.31;221062;1276;22576;-79
2022/09/17 10:33:32;;;;;;;2.20;2.00;;;;;;;14.93;76.46;97696.81;220626;1276;22562;-76
2022/09/17 10:39:57;;;;;;;2.20;1.50;;;;;;;14.60;76.10;97688.11;220683;1276;22567;-78
2022/09/17 10:46:57;;;;;;;3.00;1.60;;;;;;;14.33;76.77;97700.25;220563;1276;24402;-78
2022/09/17 10:53:24;;;;;;;3.40;1.90;;;;;;;14.29;77.43;97705.03;220273;1276;23454;-77
2022/09/17 10:58:52;;;;;;;3.80;3.20;;;;;;;14.35;77.50;97698.61;220264;1276;22555;-80
2022/09/17 11:04:21;;;;;;;2.60;1.90;;;;;;;14.51;77.62;97706.77;220524;1276;22569;-75
2022/09/17 11:10:06;;;;;;;2.60;1.60;;;;;;;14.57;77.44;97695.68;220109;1276;23040;-78
2022/09/17 11:15:54;;;;;;;2.80;2.00;;;;;;;14.50;76.93;97702.74;219675;1280;25472;-78
2022/09/17 11:22:00;;;;;;;2.30;2.10;;;;;;;14.36;77.28;97714.63;219540;1281;22670;-77
2022/09/17 11:28:21;;;;;;;;;;;;;;;;;;;;;
2022/09/17 11:35:04;;;;;;;5.10;2.60;;;;;;;14.68;78.10;97708.02;219570;1281;22678;-77
2022/09/17 11:40:59;;;;;;;6.30;2.80;;;;;;;14.79;77.66;97716.90;219928;1278;24442;-78
2022/09/17 11:53:22;;;;;;;4.30;2.90;;;;;;;14.69;77.40;97692.98;220020;1276;22596;-77
2022/09/17 11:59:20;;;;;;;4.90;3.70;;;;;;;14.78;77.35;97682.47;219755;1276;23076;-78
2022/09/17 12:05:03;;;;;;;3.40;3.10;;;;;;;15.02;76.87;97671.09;220038;1276;22562;-77
2022/09/17 12:16:52;;;;;;;3.80;3.00;;;;;;;15.25;75.72;97665.73;220069;1276;26452;-78
2022/09/17 12:22:39;;;;;;;4.00;2.60;;;;;;;15.42;75.92;97658.47;219740;1276;22519;-76
2022/09/17 12:28:08;;;;;;;5.90;2.90;;;;;;;15.60;76.05;97653.67;220253;1279;22549;-78
2022/09/17 12:33:45;;;;;;;6.20;1.90;;;;;;;15.83;75.86;97643.45;219489;1280;22673;-77
2022/09/17 12:39:32;;;;;;;3.10;1.80;;;;;;;15.93;74.34;97635.17;219679;1279;22546;-77
2022/09/17 12:45:16;;;;;;;5.00;2.10;;;;;;;15.95;73.52;97620.55;219661;1281;22663;-78
2022/09/17 12:50:53;;;;;;;4.30;1.70;;;;;;;15.94;73.87;97628.16;219256;1279;25391;-78
2022/09/17 12:56:24;;;;;;;2.80;2.30;;;;;;;15.99;73.99;97634.14;219281;1277;22560;-78
2022/09/17 13:01:44;;;;;;;3.60;3.20;;;;;;;16.00;72.75;97626.67;219960;1276;23333;-77
2022/09/17 13:07:33;;;;;;;5.30;3.50;;;;;;;15.91;73.20;97621.23;220229;1276;22622;-76
2022/09/17 13:12:55;;;;;;;3.20;2.90;;;;;;;15.86;73.31;97610.94;219914;1279;22641;-79
2022/09/17 13:18:28;;;;;;;4.10;3.50;;;;;;;15.84;73.27;97606.20;219908;1276;24410;-77
2022/09/17 13:23:52;;;;;;;;;;;;;;;;;;;;;
2022/09/17 13:28:54;;;;;;;5.20;3.40;;;;;;;15.84;73.57;97606.89;219919;1279;24420;-77
2022/09/17 13:34:10;;;;;;;4.90;3.30;;;;;;;16.10;73.85;97604.91;219797;1278;22578;-77
2022/09/17 13:39:55;;;;;;;3.60;3.30;;;;;;;16.13;71.84;97615.79;220008;1276;24321;-77
2022/09/17 13:45:45;;;;;;;3.50;2.60;;;;;;;16.02;71.12;97630.51;219715;1276;25268;-77
2022/09/17 13:51:41;;;;;;;2.80;2.00;;;;;;;16.03;71.66;97635.80;216167;1276;5356211;-76
2022/09/17 13:57:05;;;;;;;2.40;2.20;;;;;;;15.96;70.64;97625.52;219930;1276;23977;-77
2022/09/17 14:02:16;;;;;;;2.10;1.70;;;;;;;15.87;71.91;97588.54;220079;1276;22563;-77
2022/09/17 14:08:07;;;;;;;2.20;2.00;;;;;;;15.82;71.73;97573.89;220064;1276;24441;-77
2022/09/17 14:13:47;;;;;;;3.10;2.00;;;;;;;15.66;72.27;97547.13;219871;1277;22538;-77
2022/09/17 14:19:42;;;;;;;3.30;2.20;;;;;;;15.54;72.82;97532.63;219397;1279;25355;-78
2022/09/17 14:25:23;;;;;;;3.10;2.30;;;;;;;15.31;72.71;97555.52;218693;1281;25266;-77
2022/09/17 14:31:10;;;;;;;4.10;2.10;;;;;;;15.00;73.34;97581.05;218283;1285;26058;-78
2022/09/17 14:36:18;;;;;;;2.50;1.90;;;;;;;14.77;73.74;97590.46;218344;1286;22586;-77
2022/09/17 14:41:38;;;;;;;2.90;2.50;;;;;;;14.61;74.10;97603.80;218226;1284;25356;-77
2022/09/17 14:47:26;;;;;;;3.50;2.80;;;;;;;14.50;74.75;97607.50;219018;1282;24243;-77
2022/09/17 14:52:30;;;;;;;3.40;2.60;;;;;;;14.44;75.22;97605.48;218333;1282;22876;-78
2022/09/17 14:58:34;;;;;;;3.20;2.10;;;;;;;14.41;75.69;97592.00;219168;1281;22649;-76
2022/09/17 15:03:44;;;;;;;3.10;2.80;;;;;;;14.34;75.86;97571.75;219851;1277;25325;-77
2022/09/17 15:08:56;;;;;;;4.70;3.10;;;;;;;14.41;76.28;97561.77;219920;1278;25269;-77
2022/09/17 15:14:12;;;;;;;5.00;3.30;;;;;;;14.50;76.08;97558.86;220028;1278;25255;-77
2022/09/17 15:19:43;;;;;;;4.30;3.10;;;;;;;14.61;76.23;97560.09;220255;1279;25265;-76
2022/09/17 15:25:46;;;;;;;;;;;;;;;;;;;;;
2022/09/17 15:31:26;;;;;;;3.90;3.30;;;;;;;14.60;75.68;97583.13;220206;1278;22572;-76
2022/09/17 15:37:34;;;;;;;5.50;4.10;;;;;;;14.54;76.19;97586.67;220013;1278;25433;-76
2022/09/17 15:43:48;;;;;;;3.30;2.70;;;;;;;14.49;76.09;97591.06;220303;1278;24317;-77
2022/09/17 15:56:32;;;;;;;4.50;3.50;;;;;;;14.19;76.39;97598.23;220187;1278;24330;-77
2022/09/17 16:03:30;;;;;;;4.00;3.60;;;;;;;13.99;76.33;97586.11;219905;1278;22618;-77
2022/09/17 16:09:07;;;;;;;5.70;4.40;;;;;;;13.83;76.95;97585.05;219765;1277;25278;-76
2022/09/17 16:14:44;;;;;;;4.00;3.40;;;;;;;13.66;77.17;97582.05;220040;1279;23869;-76
2022/09/17 16:20:43;;;;;;;6.00;3.70;;;;;;;13.51;77.79;97591.08;219967;1279;22600;-77
2022/09/17 16:26:23;;;;;;;9.30;7.20;;;;;;;13.37;78.16;97598.52;219958;1277;22559;-77
2022/09/17 16:31:55;;;;;;;6.50;5.20;;;;;;;13.26;78.72;97591.91;220181;1278;22819;-77
2022/09/17 16:36:57;;;;;;;6.10;5.40;;;;;;;13.17;79.15;97594.78;219996;1278;22780;-78
2022/09/17 16:42:11;;;;;;;5.40;4.60;;;;;;;13.06;79.61;97601.86;219970;1277;22591;-77
2022/09/17 16:47:33;;;;;;;6.30;4.80;;;;;;;12.98;79.89;97604.98;219982;1278;23344;-77
2022/09/17 16:52:51;;;;;;;9.70;7.50;;;;;;;12.91;80.30;97605.84;219801;1278;22724;-77
2022/09/17 16:58:14;;;;;;;9.30;6.70;;;;;;;12.89;80.71;97604.74;220280;1278;22544;-76
2022/09/17 17:03:47;;;;;;;7.70;5.80;;;;;;;12.85;81.00;97600.77;219837;1279;22546;-77
2022/09/17 17:09:22;;;;;;;8.40;6.00;;;;;;;12.75;81.00;97600.05;220117;1277;22825;-77
2022/09/17 17:14:24;;;;;;;7.40;5.10;;;;;;;12.66;81.41;97598.52;219381;1278;22671;-76
2022/09/17 17:20:02;;;;;;;;;;;;;;;;;;;;;
2022/09/17 17:26:24;;;;;;;7.90;5.60;;;;;;;12.51;81.53;97596.11;220103;1276;26532;-77
2022/09/17 17:31:55;;;;;;;10.50;6.40;;;;;;;12.45;81.83;97590.27;218778;1281;24282;-76
2022/09/17 17:37:27;;;;;;;6.70;5.50;;;;;;;12.37;82.21;97586.14;219171;1281;23078;-77
2022/09/17 17:42:50;;;;;;;4.90;4.10;;;;;;;12.31;82.35;97581.87;219507;1281;22893;-77
2022/09/17 17:48:57;;;;;;;3.80;3.10;;;;;;;12.14;82.79;97578.04;218907;1283;25390;-77
2022/09/17 17:54:18;;;;;;;;;;;;;;;;;;;;;
2022/09/17 18:13:24;;;;;;;6.40;4.00;;;;;;;11.25;85.38;97583.13;219617;1281;22566;-77
2022/09/17 18:19:56;;;;;;;;;;;;;;;;;;;;;
2022/09/17 18:25:22;;;;;;;7.40;5.20;;;;;;;11.10;86.59;97603.30;219984;1277;25394;-77
2022/09/17 18:31:18;;;;;;;10.10;5.60;;;;;;;11.07;86.76;97613.77;220109;1276;22548;-77
2022/09/17 18:37:36;;;;;;;5.20;4.00;;;;;;;11.03;87.15;97613.70;219635;1277;25432;-76
2022/09/17 18:43:16;;;;;;;4.30;3.10;;;;;;;10.97;87.87;97615.70;219568;1281;24392;-78
2022/09/17 18:48:53;;;;;;;25.10;16.10;;;;;;;10.90;88.22;97610.70;219455;1281;25532;-77
2022/09/17 18:54:15;;;;;;;20.80;13.40;;;;;;;10.89;89.36;97600.11;219651;1281;25360;-77
2022/09/17 19:00:03;;;;;;;;;;;;;;;;;;;;;
2022/09/17 19:06:16;;;;;;;;;;;;;;;;;;;;;
2022/09/17 19:11:48;;;;;;;5.40;3.90;;;;;;;10.63;89.67;97616.63;219722;1277;24302;-77
2022/09/17 19:18:12;;;;;;;4.90;3.70;;;;;;;10.57;89.84;97615.54;220140;1277;22557;-76
2022/09/17 19:23:32;;;;;;;4.20;3.30;;;;;;;10.51;89.70;97623.21;219751;1278;23821;-76
2022/09/17 19:28:52;;;;;;;5.10;2.80;;;;;;;10.43;89.78;97626.56;219947;1277;22577;-76
2022/09/17 19:33:57;;;;;;;4.80;2.90;;;;;;;10.36;89.85;97627.16;219955;1278;22566;-77
2022/09/17 19:39:11;;;;;;;3.80;2.00;;;;;;;10.29;89.88;97624.83;220074;1278;22726;-76
2022/09/17 19:44:28;;;;;;;3.80;1.80;;;;;;;10.22;90.13;97621.14;219761;1277;23854;-77
2022/09/17 19:49:53;;;;;;;2.70;1.80;;;;;;;10.15;90.48;97619.91;219806;1277;27585;-77
2022/09/17 19:54:59;;;;;;;5.30;2.80;;;;;;;10.08;90.43;97624.97;220020;1277;25333;-75
2022/09/17 20:00:01;;;;;;;3.60;1.40;;;;;;;10.03;90.79;97624.27;219955;1277;22689;-75
2022/09/17 20:05:32;;;;;;;4.10;1.70;;;;;;;9.98;91.00;97623.34;219817;1277;23994;-80
2022/09/17 20:10:36;;;;;;;3.60;1.70;;;;;;;9.93;91.25;97623.42;219522;1277;24289;-77
2022/09/17 20:15:38;;;;;;;2.70;2.20;;;;;;;9.88;91.68;97626.98;219943;1276;22555;-76
2022/09/17 20:20:53;;;;;;;3.60;1.60;;;;;;;9.85;92.03;97625.59;220148;1276;22616;-76
2022/09/17 20:26:08;;;;;;;2.40;1.50;;;;;;;9.80;92.30;97626.33;220112;1277;22555;-77
2022/09/17 20:31:57;;;;;;;2.80;1.20;;;;;;;9.73;92.28;97629.08;220002;1277;23178;-77
2022/09/17 20:37:01;;;;;;;1.80;1.20;;;;;;;9.65;92.63;97628.08;219975;1277;22722;-76
2022/09/17 20:43:14;;;;;;;2.50;1.20;;;;;;;9.58;92.79;97626.48;219950;1277;25521;-76
2022/09/17 20:50:00;;;;;;;1.20;1.00;;;;;;;9.49;93.22;97625.76;219930;1277;24282;-77
2022/09/17 20:56:24;;;;;;;2.30;1.30;;;;;;;9.44;93.58;97619.77;220159;1277;26449;-76
2022/09/17 21:14:54;;;;;;;4.60;1.60;;;;;;;9.33;94.69;97608.87;220106;1276;22678;-77
2022/09/17 21:21:50;;;;;;;4.50;1.60;;;;;;;9.33;95.13;97606.90;219161;1282;22578;-78
2022/09/17 21:27:43;;;;;;;2.80;1.50;;;;;;;9.33;95.47;97604.77;219051;1281;24161;-77
2022/09/17 21:33:32;;;;;;;4.40;2.20;;;;;;;9.33;95.80;97609.63;218844;1281;26417;-77
2022/09/17 21:40:26;;;;;;;;;;;;;;;;;;;;;
2022/09/17 21:46:45;;;;;;;5.90;2.00;;;;;;;9.29;96.40;97606.57;219777;1277;24797;-78
2022/09/17 21:54:06;;;;;;;4.80;2.80;;;;;;;9.28;96.82;97605.52;219281;1281;22593;-77
2022/09/17 22:00:11;;;;;;;4.70;2.90;;;;;;;9.28;97.35;97610.33;219461;1281;23130;-77
2022/09/17 22:06:07;;;;;;;5.40;3.40;;;;;;;9.31;97.77;97607.33;219076;1281;25340;-76
2022/09/17 22:12:11;;;;;;;7.20;3.90;;;;;;;9.32;97.99;97607.55;219227;1281;25268;-77
2022/09/17 22:17:33;;;;;;;8.60;3.50;;;;;;;9.32;98.04;97602.43;219317;1281;24286;-77
2022/09/17 22:24:07;;;;;;;9.00;4.30;;;;;;;9.32;98.24;97603.63;219103;1281;25379;-77
2022/09/17 22:30:05;;;;;;;8.60;3.90;;;;;;;9.32;98.38;97600.61;219107;1281;22690;-78
2022/09/17 22:36:45;;;;;;;7.60;4.10;;;;;;;9.33;98.71;97598.95;219510;1281;22579;-78
2022/09/17 22:49:52;;;;;;;9.30;4.30;;;;;;;9.33;99.15;97591.86;219873;1277;23816;-77
2022/09/17 23:09:33;;;;;;;3.20;2.40;;;;;;;9.33;99.60;97580.88;219083;1281;25452;-77
2022/09/17 23:16:04;;;;;;;5.20;3.10;;;;;;;9.33;99.49;97578.80;219219;1281;22566;-77
2022/09/17 23:23:16;;;;;;;7.20;3.10;;;;;;;9.31;99.71;97582.42;219025;1281;25478;-77
2022/09/17 23:29:53;;;;;;;4.30;3.00;;;;;;;9.28;99.69;97585.73;220104;1277;22608;-75
2022/09/17 23:35:38;;;;;;;;;;;;;;;;;;;;;
2022/09/17 23:48:19;;;;;;;5.10;2.90;;;;;;;9.18;100.00;97587.25;219884;1277;23019;-77
2022/09/17 23:54:30;;;;;;;3.50;2.40;;;;;;;9.17;100.00;97591.34;220090;1276;22556;-76
